createdAt,value
2023-02-17T00:03:01.765Z,11.13
2023-02-17T00:07:03.810Z,11.18
2023-02-17T00:11:05.677Z,11.15
2023-02-17T00:15:07.877Z,11.18
2023-02-17T00:19:24.954Z,11.19
2023-02-17T00:23:26.724Z,11.20
2023-02-17T00:27:28.399Z,11.22
2023-02-17T00:31:30.262Z,11.16
2023-02-17T00:35:34.099Z,11.15
2023-02-17T00:39:35.680Z,11.12
2023-02-17T00:43:37.230Z,11.14
2023-02-17T00:47:38.807Z,11.17
2023-02-17T00:51:40.366Z,11.11
2023-02-17T00:55:42.052Z,11.13
2023-02-17T00:59:43.624Z,11.20
2023-02-17T01:03:45.221Z,11.20
2023-02-17T01:07:49.257Z,11.22
2023-02-17T01:11:51.200Z,11.18
2023-02-17T01:15:54.000Z,11.17
2023-02-17T01:19:55.642Z,11.15
2023-02-17T01:24:02.982Z,11.12
2023-02-17T01:28:04.776Z,11.14
2023-02-17T01:32:06.400Z,11.11
2023-02-17T01:36:10.526Z,11.02
2023-02-17T01:40:14.986Z,11.00
2023-02-17T01:44:19.708Z,11.03
2023-02-17T01:48:36.746Z,11.03
2023-02-17T01:52:39.973Z,11.03
2023-02-17T01:56:44.799Z,10.97
2023-02-17T02:00:48.866Z,10.99
2023-02-17T02:04:53.541Z,10.95
2023-02-17T02:09:02.012Z,10.90
2023-02-17T02:13:03.993Z,10.91
2023-02-17T02:17:23.343Z,10.90
2023-02-17T02:21:47.088Z,10.88
2023-02-17T02:25:51.412Z,10.86
2023-02-17T02:30:02.473Z,10.88
2023-02-17T02:34:10.374Z,10.85
2023-02-17T02:38:17.236Z,10.89
2023-02-17T02:42:22.822Z,10.92
2023-02-17T02:46:25.524Z,10.92
2023-02-17T02:50:56.974Z,10.97
2023-02-17T02:55:13.887Z,11.00
2023-02-17T02:59:33.713Z,10.95
2023-02-17T03:04:04.639Z,10.95
2023-02-17T03:08:15.592Z,10.93
2023-02-17T03:12:18.222Z,10.93
2023-02-17T03:16:19.831Z,10.89
2023-02-17T03:20:22.030Z,10.88
2023-02-17T03:24:24.091Z,10.90
2023-02-17T03:28:25.723Z,10.92
2023-02-17T03:32:27.741Z,10.93
2023-02-17T03:36:30.069Z,11.03
2023-02-17T03:40:31.654Z,11.03
2023-02-17T03:44:33.376Z,11.07
2023-02-17T03:48:34.948Z,11.11
2023-02-17T03:52:36.670Z,11.15
2023-02-17T03:56:38.275Z,11.18
2023-02-17T04:00:39.841Z,11.20
2023-02-17T04:04:42.467Z,11.21
2023-02-17T04:08:44.067Z,11.21
2023-02-17T04:12:45.655Z,11.13
2023-02-17T04:16:47.256Z,11.14
2023-02-17T04:20:50.795Z,11.08
2023-02-17T04:24:52.415Z,11.04
2023-02-17T04:28:54.025Z,11.07
2023-02-17T04:32:55.634Z,11.09
2023-02-17T04:36:57.201Z,11.09
2023-02-17T04:40:59.836Z,11.10
2023-02-17T04:45:01.389Z,11.03
2023-02-17T04:49:03.065Z,11.01
2023-02-17T04:53:04.627Z,11.01
2023-02-17T04:57:06.237Z,11.05
2023-02-17T05:01:07.901Z,11.05
2023-02-17T05:05:09.676Z,11.03
2023-02-17T05:09:11.229Z,10.95
2023-02-17T05:13:12.859Z,10.91
2023-02-17T05:17:14.643Z,10.88
2023-02-17T05:21:16.275Z,10.87
2023-02-17T05:25:18.624Z,10.90
2023-02-17T05:29:20.275Z,10.89
2023-02-17T05:33:21.825Z,10.87
2023-02-17T05:37:23.492Z,10.87
2023-02-17T05:41:25.211Z,10.87
2023-02-17T05:45:26.827Z,10.86
2023-02-17T05:49:28.509Z,10.90
2023-02-17T05:53:30.679Z,10.84
2023-02-17T05:57:32.646Z,10.89
2023-02-17T06:01:36.060Z,10.95
2023-02-17T06:05:39.571Z,10.94
2023-02-17T06:09:41.148Z,10.95
2023-02-17T06:13:42.887Z,10.94
2023-02-17T06:17:44.423Z,10.93
2023-02-17T06:21:46.056Z,10.92
2023-02-17T06:25:47.665Z,10.87
2023-02-17T06:29:49.351Z,10.88
2023-02-17T06:33:51.132Z,10.85
2023-02-17T06:37:52.968Z,10.84
2023-02-17T06:41:54.600Z,10.80
2023-02-17T06:45:56.306Z,10.85
2023-02-17T06:49:57.938Z,10.85
2023-02-17T06:53:59.497Z,10.77
2023-02-17T06:58:01.960Z,10.75
2023-02-17T07:02:04.196Z,10.75
2023-02-17T07:06:07.887Z,10.70
2023-02-17T07:10:10.746Z,10.72
2023-02-17T07:14:12.454Z,10.69
2023-02-17T07:18:14.227Z,10.72
2023-02-17T07:22:15.971Z,10.76
2023-02-17T07:26:17.641Z,10.77
2023-02-17T07:30:19.433Z,10.78
2023-02-17T07:34:22.837Z,10.72
2023-02-17T07:38:25.201Z,10.73
2023-02-17T07:42:28.299Z,10.71
2023-02-17T07:46:30.662Z,10.80
2023-02-17T07:50:32.302Z,10.84
2023-02-17T07:54:33.927Z,10.83
2023-02-17T07:58:37.850Z,10.78
2023-02-17T08:02:39.851Z,10.79
2023-02-17T08:06:41.774Z,10.85
2023-02-17T08:11:03.776Z,10.88
2023-02-17T08:15:07.738Z,10.94
2023-02-17T08:19:09.456Z,11.00
2023-02-17T08:23:12.300Z,11.04
2023-02-17T08:27:14.883Z,11.09
2023-02-17T08:31:17.348Z,11.13
2023-02-17T08:35:22.517Z,11.15
2023-02-17T08:39:24.334Z,11.14
2023-02-17T08:43:26.371Z,11.20
2023-02-17T08:47:28.117Z,11.27
2023-02-17T08:51:29.823Z,11.26
2023-02-17T08:55:47.405Z,11.27
2023-02-17T08:59:50.481Z,11.43
2023-02-17T09:03:53.975Z,11.39
2023-02-17T09:07:55.705Z,11.36
2023-02-17T09:11:58.976Z,11.28
2023-02-17T09:16:01.614Z,11.21
2023-02-17T09:20:11.229Z,11.18
2023-02-17T09:24:18.783Z,11.12
2023-02-17T09:28:20.496Z,11.00
2023-02-17T09:32:22.342Z,11.01
2023-02-17T09:36:28.824Z,10.97
2023-02-17T09:40:47.350Z,10.94
2023-02-17T09:45:00.065Z,10.86
2023-02-17T09:49:11.703Z,10.83
2023-02-17T09:53:31.964Z,10.83
2023-02-17T09:57:40.430Z,10.81
2023-02-17T10:01:46.082Z,10.72
2023-02-17T10:06:12.015Z,10.69
2023-02-17T10:10:24.353Z,10.69
2023-02-17T10:15:03.724Z,10.77
2023-02-17T10:19:14.416Z,10.84
2023-02-17T10:23:18.576Z,10.97
2023-02-17T10:27:44.056Z,11.06
2023-02-17T10:31:48.663Z,11.14
2023-02-17T10:35:52.862Z,11.18
2023-02-17T10:39:57.343Z,11.21
2023-02-17T10:44:01.058Z,11.24
2023-02-17T10:48:12.346Z,11.25
2023-02-17T10:52:20.242Z,11.29
2023-02-17T10:56:28.841Z,11.35
2023-02-17T11:00:30.539Z,11.41
2023-02-17T11:04:45.887Z,11.51
2023-02-17T11:08:51.994Z,11.55
2023-02-17T11:12:56.232Z,11.59
2023-02-17T11:17:01.575Z,11.65
2023-02-17T11:21:07.436Z,11.65
2023-02-17T11:25:33.053Z,11.66
2023-02-17T11:29:34.652Z,11.76
2023-02-17T11:33:39.797Z,11.87
2023-02-17T11:37:43.459Z,11.99
2023-02-17T11:41:45.210Z,12.07
2023-02-17T11:46:00.487Z,12.17
2023-02-17T11:50:41.965Z,12.31
2023-02-17T11:54:51.702Z,12.42
2023-02-17T11:59:11.019Z,12.53
2023-02-17T12:03:32.735Z,12.63
2023-02-17T12:08:08.736Z,12.68
2023-02-17T12:12:31.041Z,12.76
2023-02-17T12:17:10.138Z,12.81
2023-02-17T12:21:30.559Z,12.97
2023-02-17T12:25:48.229Z,12.98
2023-02-17T12:30:06.134Z,13.08
2023-02-17T12:34:20.178Z,13.23
2023-02-17T12:38:30.463Z,13.36
2023-02-17T12:42:43.969Z,13.45
2023-02-17T12:46:50.464Z,13.52
2023-02-17T12:51:03.523Z,13.46
2023-02-17T12:55:21.045Z,13.50
2023-02-17T12:59:35.123Z,13.52
2023-02-17T13:03:37.671Z,13.66
2023-02-17T13:07:51.345Z,13.58
2023-02-17T13:11:53.095Z,13.49
2023-02-17T13:16:14.491Z,13.55
2023-02-17T13:20:16.821Z,13.51
2023-02-17T13:24:34.691Z,13.60
2023-02-17T13:28:38.867Z,13.53
2023-02-17T13:32:40.582Z,13.48
2023-02-17T13:36:42.134Z,13.40
2023-02-17T13:40:43.864Z,13.44
2023-02-17T13:44:47.148Z,13.34
2023-02-17T13:49:05.666Z,13.29
2023-02-17T13:53:36.627Z,13.26
2023-02-17T13:57:39.179Z,13.28
2023-02-17T14:01:42.534Z,13.26
2023-02-17T14:05:47.392Z,13.25
2023-02-17T14:09:54.254Z,13.25
2023-02-17T14:13:57.753Z,13.23
2023-02-17T14:17:59.538Z,13.24
2023-02-17T14:22:04.404Z,13.22
2023-02-17T14:26:13.810Z,13.24
2023-02-17T14:30:31.843Z,13.24
2023-02-17T14:34:36.301Z,13.21
2023-02-17T14:38:42.135Z,13.18
2023-02-17T14:42:44.343Z,13.20
2023-02-17T14:46:46.181Z,13.21
2023-02-17T14:50:48.641Z,13.18
2023-02-17T14:54:51.380Z,13.17
2023-02-17T14:58:53.386Z,13.12
2023-02-17T15:02:54.954Z,13.10
2023-02-17T15:06:56.585Z,13.14
2023-02-17T15:10:58.347Z,13.09
2023-02-17T15:14:59.906Z,13.02
2023-02-17T15:19:01.498Z,13.13
2023-02-17T15:23:03.305Z,13.11
2023-02-17T15:27:06.316Z,13.10
2023-02-17T15:31:12.123Z,13.02
2023-02-17T15:35:22.790Z,13.06
2023-02-17T15:39:24.844Z,13.12
2023-02-17T15:48:19.844Z,13.11
2023-02-17T15:52:21.584Z,13.12
2023-02-17T15:56:31.142Z,13.12
2023-02-17T16:00:35.574Z,13.10
2023-02-17T16:04:37.643Z,13.08
2023-02-17T16:08:40.051Z,12.87
2023-02-17T16:12:42.726Z,12.98
2023-02-17T16:16:44.394Z,12.96
2023-02-17T16:20:46.113Z,12.98
2023-02-17T16:24:47.739Z,12.98
2023-02-17T16:28:49.332Z,12.90
2023-02-17T16:32:53.262Z,12.89
2023-02-17T16:36:57.518Z,12.97
2023-02-17T16:40:59.317Z,12.96
2023-02-17T16:45:01.306Z,12.88
2023-02-17T16:49:15.421Z,12.87
2023-02-17T16:53:17.716Z,12.84
2023-02-17T16:57:20.608Z,12.86
2023-02-17T17:01:24.239Z,12.84
2023-02-17T17:05:28.351Z,12.88
2023-02-17T17:09:30.798Z,12.86
2023-02-17T17:13:32.438Z,12.82
2023-02-17T17:17:40.134Z,12.77
2023-02-17T17:21:41.803Z,12.77
2023-02-17T17:25:48.661Z,12.72
2023-02-17T17:29:50.310Z,12.66
2023-02-17T17:33:52.648Z,12.57
2023-02-17T17:37:54.317Z,12.45
2023-02-17T17:41:57.519Z,12.38
2023-02-17T17:45:59.432Z,12.42
2023-02-17T17:50:01.063Z,12.45
2023-02-17T17:54:03.278Z,12.49
2023-02-17T17:58:05.029Z,12.45
2023-02-17T18:02:08.758Z,12.53
2023-02-17T18:06:18.368Z,12.56
2023-02-17T18:10:20.405Z,12.57
2023-02-17T18:14:22.762Z,12.63
2023-02-17T18:18:25.214Z,12.66
2023-02-17T18:22:27.287Z,12.67
2023-02-17T18:26:29.461Z,12.66
2023-02-17T18:30:31.372Z,12.70
2023-02-17T18:34:33.108Z,12.70
2023-02-17T18:38:34.985Z,12.70
2023-02-17T18:42:37.328Z,12.73
2023-02-17T18:46:39.965Z,12.68
2023-02-17T18:50:42.817Z,12.65
2023-02-17T18:54:45.945Z,12.66
2023-02-17T18:58:49.654Z,12.72
2023-02-17T19:02:51.744Z,12.71
2023-02-17T19:06:54.188Z,12.75
2023-02-17T19:10:55.793Z,12.77
2023-02-17T19:14:57.365Z,12.85
2023-02-17T19:18:59.524Z,12.85
2023-02-17T19:23:03.740Z,12.88
2023-02-17T19:27:06.021Z,12.90
2023-02-17T19:31:19.350Z,12.88
2023-02-17T19:35:21.116Z,12.92
2023-02-17T19:39:22.695Z,12.96
2023-02-17T19:43:24.265Z,13.03
2023-02-17T19:47:25.921Z,13.03
2023-02-17T19:51:27.537Z,13.05
2023-02-17T19:55:29.233Z,13.07
2023-02-17T19:59:33.935Z,13.06
2023-02-17T20:03:35.868Z,13.02
2023-02-17T20:07:37.685Z,13.07
2023-02-17T20:11:39.350Z,13.03
2023-02-17T20:15:40.920Z,12.97
2023-02-17T20:19:42.458Z,12.97
2023-02-17T20:23:44.426Z,12.97
2023-02-17T20:27:46.035Z,13.01
2023-02-17T20:31:47.826Z,13.00
2023-02-17T20:35:49.730Z,12.99
2023-02-17T20:39:51.698Z,12.96
2023-02-17T20:43:53.386Z,12.99
2023-02-17T20:47:54.970Z,13.02
2023-02-17T20:51:56.711Z,13.03
2023-02-17T20:55:58.358Z,12.97
2023-02-17T21:00:00.032Z,12.96
2023-02-17T21:04:02.643Z,12.95
2023-02-17T21:08:04.904Z,12.92
2023-02-17T21:12:07.129Z,12.96
2023-02-17T21:16:15.969Z,13.00
2023-02-17T21:20:20.280Z,12.94
2023-02-17T21:24:22.272Z,13.02
2023-02-17T21:28:24.361Z,13.00
2023-02-17T21:32:26.286Z,12.94
2023-02-17T21:36:29.270Z,12.94
2023-02-17T21:40:31.212Z,13.01
2023-02-17T21:44:51.528Z,12.99
2023-02-17T21:48:53.607Z,12.95
2023-02-17T21:52:55.210Z,12.90
2023-02-17T21:56:56.818Z,12.87
2023-02-17T22:00:58.889Z,12.90
2023-02-17T22:05:00.538Z,12.83
2023-02-17T22:09:03.454Z,12.86
2023-02-17T22:13:06.283Z,12.86
2023-02-17T22:17:08.697Z,12.85
2023-02-17T22:21:12.315Z,12.82
2023-02-17T22:25:13.889Z,12.83
2023-02-17T22:29:15.547Z,12.89
2023-02-17T22:33:17.133Z,12.86
2023-02-17T22:37:18.722Z,12.85
2023-02-17T22:41:23.938Z,12.87
2023-02-17T22:45:25.481Z,12.89
2023-02-17T22:49:28.047Z,12.89
2023-02-17T22:53:29.698Z,12.87
2023-02-17T22:57:31.245Z,12.90
2023-02-17T23:01:35.796Z,12.92
2023-02-17T23:05:37.401Z,12.83
2023-02-17T23:09:38.971Z,12.86
2023-02-17T23:13:41.260Z,12.93
2023-02-17T23:17:57.920Z,12.90
2023-02-17T23:22:03.899Z,12.86
2023-02-17T23:26:06.006Z,12.82
2023-02-17T23:30:11.101Z,12.82
2023-02-17T23:34:14.767Z,12.81
2023-02-17T23:38:18.491Z,12.83
2023-02-17T23:42:20.062Z,12.78
2023-02-17T23:46:21.763Z,12.86
2023-02-17T23:50:23.926Z,12.82
2023-02-17T23:54:25.619Z,12.78
2023-02-17T23:58:27.179Z,12.75
